Time;durP1;ratioP1;P1;durP2;ratioP2;P2;SDS_P1;SDS_P2;PMS_P1;PMS_P2;Temp;Humidity;BMP_temperature;BMP_pressure;BME280_temperature;BME280_humidity;BME280_pressure;Samples;Min_cycle;Max_cycle;Signal;HPM_P1;HPM_P2
2023/04/25 00:02:13;;;;;;;;;;;14.90;99.90;;;;;;5115424;28;19989;-62
2023/04/25 00:04:38;;;;;;;;;;;15.00;99.90;;;;;;5115376;28;20068;-62
2023/04/25 00:07:04;;;;;;;;;;;15.10;99.90;;;;;;5115555;28;20069;-62
2023/04/25 00:09:30;;;;;;;;;;;15.20;99.90;;;;;;5115535;28;20008;-62
2023/04/25 00:11:55;;;;;;;;;;;15.20;99.90;;;;;;5115222;28;20335;-62
2023/04/25 00:14:21;;;;;;;;;;;15.30;99.90;;;;;;5115111;28;20076;-62
2023/04/25 00:16:48;;;;;;;;;;;15.30;99.90;;;;;;5115177;28;19984;-62
2023/04/25 00:19:13;;;;;;;;;;;15.30;99.90;;;;;;5115115;28;20011;-62
2023/04/25 00:21:40;;;;;;;;;;;15.30;99.90;;;;;;5115002;28;20470;-62
2023/04/25 00:24:06;;;;;;;;;;;15.20;99.90;;;;;;5115130;28;20033;-62
2023/04/25 00:26:33;;;;;;;;;;;15.20;99.90;;;;;;5114759;28;19985;-62
2023/04/25 00:28:58;;;;;;;;;;;15.20;99.90;;;;;;5115016;28;20083;-62
2023/04/25 00:31:24;;;;;;;;;;;15.20;99.90;;;;;;5115007;28;20071;-62
2023/04/25 00:33:49;;;;;;;;;;;15.20;99.90;;;;;;5115019;28;19989;-62
2023/04/25 00:36:15;;;;;;;;;;;15.30;99.90;;;;;;5114971;28;19985;-62
2023/04/25 00:38:41;;;;;;;;;;;15.30;99.90;;;;;;5114603;28;20027;-62
2023/04/25 00:41:07;;;;;;;;;;;15.30;99.90;;;;;;5114602;28;19989;-62
2023/04/25 00:43:33;;;;;;;;;;;15.30;99.90;;;;;;5114626;28;20029;-62
2023/04/25 00:46:00;;;;;;;;;;;15.30;99.90;;;;;;5114486;28;20024;-62
2023/04/25 00:48:25;;;;;;;;;;;15.30;99.90;;;;;;5114633;28;19984;-62
2023/04/25 00:50:55;;;;;;;;;;;15.40;99.90;;;;;;5114456;28;20340;-62
2023/04/25 00:53:21;;;;;;;;;;;15.40;99.90;;;;;;5114589;28;19996;-62
2023/04/25 00:55:47;;;;;;;;;;;15.40;99.90;;;;;;5114360;28;20343;-62
2023/04/25 00:58:12;;;;;;;;;;;15.40;99.90;;;;;;5114362;28;19996;-62
2023/04/25 01:00:38;;;;;;;;;;;15.30;99.90;;;;;;5114553;28;19985;-62
2023/04/25 01:03:04;;;;;;;;;;;15.30;99.90;;;;;;5114358;28;19992;-62
2023/04/25 01:05:30;;;;;;;;;;;15.30;99.90;;;;;;5114307;28;19996;-62
2023/04/25 01:07:55;;;;;;;;;;;15.30;99.90;;;;;;5114428;28;20033;-62
2023/04/25 01:10:21;;;;;;;;;;;15.30;99.90;;;;;;5114118;28;20005;-62
2023/04/25 01:12:47;;;;;;;;;;;15.30;99.90;;;;;;5114217;28;20042;-62
2023/04/25 01:15:12;;;;;;;;;;;15.30;99.90;;;;;;5114296;28;19988;-62
2023/04/25 01:17:39;;;;;;;;;;;15.30;99.90;;;;;;5114122;28;20034;-62
2023/04/25 01:20:05;;;;;;;;;;;15.20;99.90;;;;;;5114201;28;20427;-62
2023/04/25 01:22:31;;;;;;;;;;;15.20;99.90;;;;;;5114254;28;20007;-62
2023/04/25 01:24:57;;;;;;;;;;;15.20;99.90;;;;;;5113965;28;19991;-62
2023/04/25 01:27:22;;;;;;;;;;;15.30;99.90;;;;;;5114108;28;20363;-62
2023/04/25 01:29:49;;;;;;;;;;;15.10;99.90;;;;;;5113975;28;20034;-62
2023/04/25 01:32:14;;;;;;;;;;;14.80;99.90;;;;;;5113988;28;19995;-62
2023/04/25 01:34:40;;;;;;;;;;;14.70;99.90;;;;;;5114341;28;19989;-62
2023/04/25 01:37:05;;;;;;;;;;;14.90;99.90;;;;;;5114236;28;19993;-62
2023/04/25 01:39:31;;;;;;;;;;;14.80;99.90;;;;;;5113680;28;20107;-62
2023/04/25 01:41:58;;;;;;;;;;;14.80;99.90;;;;;;5113948;28;20045;-62
2023/04/25 01:44:24;;;;;;;;;;;14.90;99.90;;;;;;5113932;28;19992;-62
2023/04/25 01:46:50;;;;;;;;;;;14.80;99.90;;;;;;5113962;28;20401;-62
2023/04/25 01:49:15;;;;;;;;;;;14.90;99.90;;;;;;5113939;28;20005;-62
2023/04/25 01:51:41;;;;;;;;;;;14.90;99.90;;;;;;5113930;28;19989;-62
2023/04/25 01:54:07;;;;;;;;;;;15.00;99.90;;;;;;5113827;28;19984;-62
2023/04/25 01:56:33;;;;;;;;;;;15.00;99.90;;;;;;5113982;28;19989;-62
2023/04/25 01:58:58;;;;;;;;;;;14.80;99.90;;;;;;5115625;28;19984;-62
2023/04/25 02:01:25;;;;;;;;;;;14.70;99.90;;;;;;5117833;28;19995;-62
2023/04/25 02:03:50;;;;;;;;;;;14.50;99.90;;;;;;5117825;28;20090;-62
2023/04/25 02:06:16;;;;;;;;;;;14.20;99.90;;;;;;5117846;28;20020;-63
2023/04/25 02:08:41;;;;;;;;;;;14.10;99.90;;;;;;5117482;28;19992;-63
2023/04/25 02:11:07;;;;;;;;;;;14.00;99.90;;;;;;5117707;28;20521;-62
2023/04/25 02:13:32;;;;;;;;;;;13.90;99.90;;;;;;5117595;28;19997;-62
2023/04/25 02:15:58;;;;;;;;;;;13.90;99.90;;;;;;5117818;28;20350;-63
2023/04/25 02:18:24;;;;;;;;;;;13.90;99.90;;;;;;5117514;28;19988;-63
2023/04/25 02:20:49;;;;;;;;;;;14.00;99.90;;;;;;5117506;27;20034;-62
2023/04/25 02:23:18;;;;;;;;;;;13.90;99.90;;;;;;5117499;28;20458;-62
2023/04/25 02:25:44;;;;;;;;;;;13.90;99.90;;;;;;5117542;28;19992;-62
2023/04/25 02:28:10;;;;;;;;;;;13.70;99.90;;;;;;5117323;28;19988;-62
2023/04/25 02:30:36;;;;;;;;;;;13.80;99.90;;;;;;5117221;28;20095;-62
2023/04/25 02:33:01;;;;;;;;;;;13.70;99.90;;;;;;5117212;28;19988;-62
2023/04/25 02:35:27;;;;;;;;;;;13.50;99.90;;;;;;5117149;28;19988;-62
2023/04/25 02:37:52;;;;;;;;;;;13.40;99.90;;;;;;5116780;28;20021;-61
2023/04/25 02:40:18;;;;;;;;;;;13.50;99.90;;;;;;5116969;28;20083;-62
2023/04/25 02:42:45;;;;;;;;;;;13.40;99.90;;;;;;5117172;28;19984;-62
2023/04/25 02:45:11;;;;;;;;;;;13.30;99.90;;;;;;5117121;28;19984;-62
2023/04/25 02:47:36;;;;;;;;;;;13.10;99.90;;;;;;5116850;28;19984;-62
2023/04/25 02:50:02;;;;;;;;;;;13.00;99.90;;;;;;5116885;28;20454;-62
2023/04/25 02:52:28;;;;;;;;;;;13.00;99.90;;;;;;5116728;28;19989;-62
2023/04/25 02:54:53;;;;;;;;;;;13.00;99.90;;;;;;5116684;28;20483;-62
2023/04/25 02:57:19;;;;;;;;;;;13.00;99.90;;;;;;5117072;28;20011;-62
2023/04/25 02:59:44;;;;;;;;;;;13.00;99.90;;;;;;5116671;28;20007;-62
2023/04/25 03:02:10;;;;;;;;;;;13.10;99.90;;;;;;5116994;27;20028;-62
2023/04/25 03:04:36;;;;;;;;;;;13.00;99.90;;;;;;5116543;28;20427;-62
2023/04/25 03:07:01;;;;;;;;;;;13.00;99.90;;;;;;5116392;28;19985;-62
2023/04/25 03:09:27;;;;;;;;;;;13.10;99.90;;;;;;5116340;28;20011;-62
2023/04/25 03:11:52;;;;;;;;;;;13.20;99.90;;;;;;5116426;28;20471;-62
2023/04/25 03:14:18;;;;;;;;;;;13.10;99.90;;;;;;5116670;28;19993;-62
2023/04/25 03:16:44;;;;;;;;;;;13.00;99.90;;;;;;5116463;28;19992;-63
2023/04/25 03:19:09;;;;;;;;;;;12.80;99.90;;;;;;5116284;28;19985;-63
2023/04/25 03:21:35;;;;;;;;;;;12.90;99.90;;;;;;5116130;28;20000;-62
2023/04/25 03:24:02;;;;;;;;;;;12.90;99.90;;;;;;5116279;28;19985;-62
2023/04/25 03:26:27;;;;;;;;;;;12.90;99.90;;;;;;5116158;28;19991;-62
2023/04/25 03:28:53;;;;;;;;;;;13.00;99.90;;;;;;5116331;28;19992;-62
2023/04/25 03:31:19;;;;;;;;;;;13.20;99.90;;;;;;5116118;28;20469;-62
2023/04/25 03:33:45;;;;;;;;;;;13.30;99.90;;;;;;5116052;28;19988;-62
2023/04/25 03:36:10;;;;;;;;;;;13.30;99.90;;;;;;5115832;28;20018;-62
2023/04/25 03:38:36;;;;;;;;;;;13.10;99.90;;;;;;5116094;27;20025;-62
2023/04/25 03:41:01;;;;;;;;;;;13.00;99.90;;;;;;5115934;28;20476;-62
2023/04/25 03:43:27;;;;;;;;;;;13.00;99.90;;;;;;5115772;28;20079;-62
2023/04/25 03:45:53;;;;;;;;;;;12.90;99.90;;;;;;5115951;28;20041;-62
2023/04/25 03:48:21;;;;;;;;;;;12.90;99.90;;;;;;5115741;28;19984;-62
2023/04/25 03:50:47;;;;;;;;;;;12.90;99.90;;;;;;5115370;28;20055;-62
2023/04/25 03:53:12;;;;;;;;;;;12.90;99.90;;;;;;5115746;28;20029;-62
2023/04/25 03:55:38;;;;;;;;;;;12.90;99.90;;;;;;5115749;28;19985;-62
2023/04/25 03:58:03;;;;;;;;;;;12.70;99.90;;;;;;5115826;28;20047;-62
2023/04/25 04:00:29;;;;;;;;;;;12.70;99.90;;;;;;5115822;28;20024;-62
2023/04/25 04:02:55;;;;;;;;;;;12.70;99.90;;;;;;5115601;28;20072;-62
2023/04/25 04:05:21;;;;;;;;;;;12.60;99.90;;;;;;5115534;28;20028;-62
2023/04/25 04:07:46;;;;;;;;;;;12.70;99.90;;;;;;5115405;28;20488;-62
2023/04/25 04:10:12;;;;;;;;;;;12.80;99.90;;;;;;5115306;28;20061;-62
2023/04/25 04:12:37;;;;;;;;;;;12.90;99.90;;;;;;5115259;28;19992;-62
2023/04/25 04:15:04;;;;;;;;;;;13.00;99.90;;;;;;5115122;28;20032;-62
2023/04/25 04:17:30;;;;;;;;;;;13.10;99.90;;;;;;5115220;28;20034;-62
2023/04/25 04:19:56;;;;;;;;;;;13.10;99.90;;;;;;5115016;28;19984;-62
2023/04/25 04:22:22;;;;;;;;;;;13.10;99.90;;;;;;5114452;28;20000;-62
2023/04/25 04:24:49;;;;;;;;;;;13.10;99.90;;;;;;5115065;28;20125;-62
2023/04/25 04:27:17;;;;;;;;;;;13.00;99.90;;;;;;5115395;28;19996;-62
2023/04/25 04:29:42;;;;;;;;;;;13.10;99.90;;;;;;5114776;28;20474;-62
2023/04/25 04:32:08;;;;;;;;;;;13.10;99.90;;;;;;5115067;28;20077;-62
2023/04/25 04:34:34;;;;;;;;;;;13.10;99.90;;;;;;5114744;28;20458;-62
2023/04/25 04:37:00;;;;;;;;;;;12.90;99.90;;;;;;5115039;28;20148;-61
2023/04/25 04:39:26;;;;;;;;;;;12.90;99.90;;;;;;5114711;28;20533;-61
2023/04/25 04:41:51;;;;;;;;;;;12.90;99.90;;;;;;5114837;28;19988;-62
2023/04/25 04:44:17;;;;;;;;;;;12.90;99.90;;;;;;5114482;28;19995;-62
2023/04/25 04:46:44;;;;;;;;;;;12.80;99.90;;;;;;5114882;28;19988;-62
2023/04/25 04:49:10;;;;;;;;;;;12.80;99.90;;;;;;5113797;28;20677;-62
2023/04/25 04:51:36;;;;;;;;;;;12.90;99.90;;;;;;5113461;28;19996;-62
2023/04/25 04:54:02;;;;;;;;;;;13.00;99.90;;;;;;5114791;28;19988;-62
2023/04/25 04:56:29;;;;;;;;;;;12.90;99.90;;;;;;5114524;28;20039;-62
2023/04/25 04:58:54;;;;;;;;;;;13.00;99.90;;;;;;5114416;28;20084;-62
2023/04/25 05:01:20;;;;;;;;;;;13.00;99.90;;;;;;5114587;28;20020;-62
2023/04/25 05:03:46;;;;;;;;;;;13.10;99.90;;;;;;5114302;28;20419;-63
2023/04/25 05:06:11;;;;;;;;;;;13.10;99.90;;;;;;5112705;28;19985;-63
2023/04/25 05:08:37;;;;;;;;;;;13.10;99.90;;;;;;5112927;28;20028;-63
2023/04/25 05:11:02;;;;;;;;;;;13.20;99.90;;;;;;5113134;28;20095;-64
2023/04/25 05:13:28;;;;;;;;;;;13.20;99.90;;;;;;5113601;28;20435;-63
2023/04/25 05:15:53;;;;;;;;;;;13.20;99.90;;;;;;5113547;28;20453;-63
2023/04/25 05:18:19;;;;;;;;;;;13.20;99.90;;;;;;5113960;28;19988;-63
2023/04/25 05:20:45;;;;;;;;;;;13.20;99.90;;;;;;5113700;28;19985;-63
2023/04/25 05:23:10;;;;;;;;;;;13.20;99.90;;;;;;5114011;28;19989;-63
2023/04/25 05:25:36;;;;;;;;;;;13.20;99.90;;;;;;5113954;28;20354;-63
2023/04/25 05:28:01;;;;;;;;;;;13.20;99.90;;;;;;5114201;28;19988;-63
2023/04/25 05:30:27;;;;;;;;;;;13.20;99.90;;;;;;5113701;28;20011;-63
2023/04/25 05:32:52;;;;;;;;;;;13.10;99.90;;;;;;5113830;28;19989;-63
2023/04/25 05:35:18;;;;;;;;;;;13.10;99.90;;;;;;5118091;28;20381;-64
2023/04/25 05:37:43;;;;;;;;;;;13.20;99.90;;;;;;5118016;28;20386;-64
2023/04/25 05:40:09;;;;;;;;;;;13.30;99.90;;;;;;5118066;28;20437;-63
2023/04/25 05:42:35;;;;;;;;;;;13.40;99.90;;;;;;5118144;28;20034;-64
2023/04/25 05:45:01;;;;;;;;;;;13.50;99.90;;;;;;5118181;28;19985;-64
2023/04/25 05:47:26;;;;;;;;;;;13.60;99.90;;;;;;5117531;28;19985;-64
2023/04/25 05:49:52;;;;;;;;;;;13.50;99.90;;;;;;5118211;28;20831;-63
2023/04/25 05:52:18;;;;;;;;;;;13.60;99.90;;;;;;5116936;28;19996;-64
2023/04/25 05:54:43;;;;;;;;;;;13.60;99.90;;;;;;5118013;28;19989;-64
2023/04/25 05:57:17;;;;;;;;;;;13.60;99.90;;;;;;5117724;28;19985;-64
2023/04/25 05:59:43;;;;;;;;;;;13.70;99.90;;;;;;5116590;28;19994;-63
2023/04/25 06:02:09;;;;;;;;;;;13.80;99.90;;;;;;5117380;28;19984;-64
2023/04/25 06:04:34;;;;;;;;;;;13.90;99.90;;;;;;5117593;28;19989;-64
2023/04/25 06:07:00;;;;;;;;;;;14.00;99.90;;;;;;5117635;28;20020;-64
2023/04/25 06:09:25;;;;;;;;;;;14.00;99.90;;;;;;5110246;28;20045;-64
2023/04/25 06:11:51;;;;;;;;;;;14.00;99.90;;;;;;5085661;28;20596;-64
2023/04/25 06:14:16;;;;;;;;;;;14.00;99.90;;;;;;5092943;28;20431;-63
2023/04/25 06:16:42;;;;;;;;;;;13.90;99.90;;;;;;5095318;28;19984;-64
2023/04/25 06:19:08;;;;;;;;;;;13.90;99.90;;;;;;5090850;28;20079;-63
2023/04/25 06:21:33;;;;;;;;;;;14.10;99.90;;;;;;5096522;28;20008;-64
2023/04/25 06:23:59;;;;;;;;;;;14.20;99.90;;;;;;5095861;28;19996;-64
2023/04/25 06:26:24;;;;;;;;;;;14.10;99.90;;;;;;5087382;28;19997;-64
2023/04/25 06:28:50;;;;;;;;;;;14.00;99.90;;;;;;5093088;28;19995;-64
2023/04/25 06:31:15;;;;;;;;;;;13.90;99.90;;;;;;5096036;28;20352;-64
2023/04/25 06:33:41;;;;;;;;;;;13.90;99.90;;;;;;5091702;28;20039;-64
2023/04/25 06:36:07;;;;;;;;;;;13.90;99.90;;;;;;5091237;28;19989;-64
2023/04/25 06:38:33;;;;;;;;;;;13.90;99.90;;;;;;5094589;28;20020;-64
2023/04/25 06:40:58;;;;;;;;;;;13.90;99.90;;;;;;5091722;28;20340;-64
2023/04/25 06:43:24;;;;;;;;;;;13.90;99.90;;;;;;5086612;28;20004;-63
2023/04/25 06:45:50;;;;;;;;;;;14.10;99.90;;;;;;5084664;28;20443;-65
2023/04/25 06:48:15;;;;;;;;;;;14.20;99.90;;;;;;5088306;28;20000;-64
2023/04/25 06:50:42;;;;;;;;;;;14.30;99.90;;;;;;5084213;28;20017;-63
2023/04/25 06:53:08;;;;;;;;;;;14.40;99.90;;;;;;5091285;28;19996;-64
2023/04/25 06:55:34;;;;;;;;;;;14.50;99.90;;;;;;5091204;28;19993;-63
2023/04/25 06:58:00;;;;;;;;;;;14.60;99.90;;;;;;5087178;28;19993;-63
2023/04/25 07:00:26;;;;;;;;;;;14.80;99.90;;;;;;5088349;28;20393;-63
2023/04/25 07:02:51;;;;;;;;;;;14.90;99.90;;;;;;5072481;28;20016;-64
2023/04/25 07:05:17;;;;;;;;;;;15.00;99.90;;;;;;5084514;28;19999;-62
2023/04/25 07:07:42;;;;;;;;;;;15.00;99.90;;;;;;5093758;28;20032;-64
2023/04/25 07:10:08;;;;;;;;;;;15.10;99.90;;;;;;5072159;28;20443;-64
2023/04/25 07:12:34;;;;;;;;;;;15.30;99.90;;;;;;5110383;28;20443;-63
2023/04/25 07:15:05;;;;;;;;;;;15.50;99.90;;;;;;5107944;28;19989;-63
2023/04/25 07:17:31;;;;;;;;;;;15.60;99.90;;;;;;5103925;28;20411;-62
2023/04/25 07:19:56;;;;;;;;;;;15.70;99.90;;;;;;5111264;28;20079;-61
2023/04/25 07:22:22;;;;;;;;;;;15.70;99.90;;;;;;5111722;28;20001;-61
2023/04/25 07:24:48;;;;;;;;;;;15.90;99.90;;;;;;5112242;28;19991;-63
2023/04/25 07:27:14;;;;;;;;;;;16.20;99.90;;;;;;5114384;28;20500;-62
2023/04/25 07:29:40;;;;;;;;;;;16.50;99.90;;;;;;5105725;28;20013;-63
2023/04/25 07:32:05;;;;;;;;;;;18.20;99.90;;;;;;5093737;28;19993;-63
2023/04/25 07:34:31;;;;;;;;;;;18.10;99.90;;;;;;5093834;28;20359;-64
2023/04/25 07:36:59;;;;;;;;;;;17.90;99.70;;;;;;5094542;28;20067;-63
2023/04/25 07:39:25;;;;;;;;;;;17.60;96.30;;;;;;5105960;28;20043;-62
2023/04/25 07:41:50;;;;;;;;;;;17.20;99.60;;;;;;5112179;28;20016;-64
2023/04/25 07:44:16;;;;;;;;;;;17.00;99.90;;;;;;5112069;28;20036;-63
2023/04/25 07:46:41;;;;;;;;;;;17.10;99.90;;;;;;5109673;28;19996;-63
2023/04/25 07:49:07;;;;;;;;;;;17.30;99.90;;;;;;5113130;28;20067;-64
2023/04/25 07:51:33;;;;;;;;;;;17.30;99.90;;;;;;5102695;28;20458;-67
2023/04/25 07:53:59;;;;;;;;;;;17.00;99.90;;;;;;5088882;28;19996;-65
2023/04/25 07:56:25;;;;;;;;;;;16.70;99.90;;;;;;5101661;28;19989;-66
2023/04/25 07:58:51;;;;;;;;;;;16.40;99.90;;;;;;5086293;28;19992;-67
2023/04/25 08:01:16;;;;;;;;;;;16.20;99.90;;;;;;5081701;28;19993;-67
2023/04/25 08:03:42;;;;;;;;;;;16.10;99.90;;;;;;5087259;28;19988;-64
2023/04/25 08:06:08;;;;;;;;;;;16.10;99.90;;;;;;5088919;28;19992;-65
2023/04/25 08:08:33;;;;;;;;;;;16.10;99.90;;;;;;5093963;28;19992;-65
2023/04/25 08:10:59;;;;;;;;;;;16.50;99.90;;;;;;5077767;28;20074;-64
2023/04/25 08:13:24;;;;;;;;;;;17.40;99.40;;;;;;5097975;28;20400;-65
2023/04/25 08:15:50;;;;;;;;;;;18.40;98.80;;;;;;5096592;28;20046;-64
2023/04/25 08:18:16;;;;;;;;;;;18.60;95.20;;;;;;5090167;28;20362;-65
2023/04/25 08:20:41;;;;;;;;;;;18.50;93.70;;;;;;5072020;28;20441;-65
2023/04/25 08:23:07;;;;;;;;;;;18.10;91.30;;;;;;5096513;28;20358;-68
2023/04/25 08:25:33;;;;;;;;;;;17.80;94.30;;;;;;5102022;28;21115;-68
2023/04/25 08:28:02;;;;;;;;;;;17.80;99.60;;;;;;5092282;28;19989;-65
2023/04/25 08:30:28;;;;;;;;;;;17.90;96.20;;;;;;5080480;28;20013;-66
2023/04/25 08:32:54;;;;;;;;;;;17.90;87.20;;;;;;5085721;28;20367;-65
2023/04/25 08:35:34;;;;;;;;;;;18.10;91.90;;;;;;5084403;28;19993;-64
2023/04/25 08:38:01;;;;;;;;;;;18.20;81.50;;;;;;5083765;28;20079;-63
2023/04/25 08:40:45;;;;;;;;;;;18.10;77.20;;;;;;5086766;28;20033;-68
2023/04/25 08:43:16;;;;;;;;;;;18.00;81.80;;;;;;5087467;28;20028;-63
2023/04/25 08:45:48;;;;;;;;;;;17.80;83.00;;;;;;5086916;28;19989;-65
2023/04/25 08:48:17;;;;;;;;;;;17.70;91.10;;;;;;5089244;28;20116;-65
2023/04/25 08:50:52;;;;;;;;;;;18.00;78.90;;;;;;5082247;28;20123;-64
2023/04/25 08:53:28;;;;;;;;;;;17.80;84.90;;;;;;5081664;28;20455;-65
2023/04/25 08:55:56;;;;;;;;;;;17.70;81.50;;;;;;5088406;28;19992;-63
2023/04/25 08:58:30;;;;;;;;;;;17.70;88.10;;;;;;5087619;28;19989;-66
2023/04/25 09:00:59;;;;;;;;;;;17.60;81.70;;;;;;5078258;28;20027;-63
2023/04/25 09:03:25;;;;;;;;;;;17.70;81.10;;;;;;5089119;28;20507;-64
2023/04/25 09:06:01;;;;;;;;;;;17.50;78.70;;;;;;5087279;28;20075;-64
2023/04/25 09:08:30;;;;;;;;;;;17.40;83.80;;;;;;5090879;28;19989;-64
2023/04/25 09:11:07;;;;;;;;;;;17.10;77.40;;;;;;5085673;28;20015;-64
2023/04/25 09:13:34;;;;;;;;;;;17.00;80.10;;;;;;5087777;28;19997;-66
2023/04/25 09:16:07;;;;;;;;;;;16.90;87.70;;;;;;5088451;28;20354;-64
2023/04/25 09:18:34;;;;;;;;;;;18.10;78.90;;;;;;5087996;28;19993;-64
2023/04/25 09:21:17;;;;;;;;;;;18.90;63.90;;;;;;5087408;28;19989;-66
2023/04/25 09:23:47;;;;;;;;;;;18.50;64.30;;;;;;5086420;28;20004;-64
2023/04/25 09:26:19;;;;;;;;;;;18.30;62.60;;;;;;5084935;28;20100;-65
2023/04/25 09:28:45;;;;;;;;;;;18.30;61.00;;;;;;5086150;28;19997;-65
2023/04/25 09:31:11;;;;;;;;;;;17.90;67.20;;;;;;5078481;28;20032;-64
2023/04/25 09:33:48;;;;;;;;;;;17.60;62.10;;;;;;5072802;28;20447;-65
2023/04/25 09:36:15;;;;;;;;;;;17.40;64.80;;;;;;5078489;28;20004;-63
2023/04/25 09:38:48;;;;;;;;;;;17.30;70.30;;;;;;5087859;28;20024;-62
2023/04/25 09:41:22;;;;;;;;;;;17.40;82.60;;;;;;5093159;28;20234;-64
2023/04/25 09:43:49;;;;;;;;;;;17.90;72.40;;;;;;5096858;28;20434;-63
2023/04/25 09:46:15;;;;;;;;;;;18.00;66.40;;;;;;5098568;28;19993;-62
2023/04/25 09:48:47;;;;;;;;;;;18.50;70.30;;;;;;5089111;28;19993;-62
2023/04/25 09:51:13;;;;;;;;;;;19.40;65.60;;;;;;5081863;28;20013;-62
2023/04/25 09:53:43;;;;;;;;;;;19.70;62.00;;;;;;5085629;28;20084;-62
2023/04/25 09:56:10;;;;;;;;;;;19.70;55.30;;;;;;5075715;28;20043;-64
2023/04/25 09:58:37;;;;;;;;;;;19.70;56.20;;;;;;5085435;28;19989;-62
2023/04/25 10:01:06;;;;;;;;;;;19.50;53.10;;;;;;5092700;28;19989;-65
2023/04/25 10:03:32;;;;;;;;;;;19.40;56.80;;;;;;5095564;28;20122;-65
2023/04/25 10:06:02;;;;;;;;;;;19.00;54.90;;;;;;5093652;28;19988;-63
2023/04/25 10:08:32;;;;;;;;;;;18.90;55.30;;;;;;5094476;28;20598;-64
2023/04/25 10:11:00;;;;;;;;;;;18.90;59.60;;;;;;5084420;28;20010;-64
2023/04/25 10:13:26;;;;;;;;;;;18.70;58.50;;;;;;5097423;28;20039;-60
2023/04/25 10:15:52;;;;;;;;;;;18.70;57.50;;;;;;5096153;28;20137;-63
2023/04/25 10:18:19;;;;;;;;;;;19.00;56.40;;;;;;5088677;28;20012;-64
2023/04/25 10:20:45;;;;;;;;;;;19.20;55.90;;;;;;5085292;28;20333;-63
2023/04/25 10:23:13;;;;;;;;;;;19.40;55.70;;;;;;5088742;28;20079;-60
2023/04/25 10:25:39;;;;;;;;;;;20.10;55.20;;;;;;5079775;28;20024;-64
2023/04/25 10:28:13;;;;;;;;;;;21.50;49.90;;;;;;5091686;28;20004;-62
2023/04/25 10:30:56;;;;;;;;;;;22.50;49.90;;;;;;5090420;28;20461;-61
2023/04/25 10:33:29;;;;;;;;;;;22.50;48.90;;;;;;5089087;28;20190;-63
2023/04/25 10:35:57;;;;;;;;;;;21.90;46.90;;;;;;5096030;28;20024;-62
2023/04/25 10:38:23;;;;;;;;;;;21.70;48.40;;;;;;5094796;28;20025;-63
2023/04/25 10:41:08;;;;;;;;;;;21.70;47.30;;;;;;5087256;28;19989;-62
2023/04/25 10:43:38;;;;;;;;;;;21.50;49.30;;;;;;5088404;28;20508;-62
2023/04/25 10:46:23;;;;;;;;;;;21.20;50.80;;;;;;5087285;28;19993;-62
2023/04/25 10:48:50;;;;;;;;;;;20.90;49.60;;;;;;5086143;28;20450;-62
2023/04/25 10:51:20;;;;;;;;;;;20.50;48.90;;;;;;5084068;28;20057;-64
2023/04/25 10:53:46;;;;;;;;;;;20.30;48.80;;;;;;5080085;28;20043;-63
2023/04/25 10:56:22;;;;;;;;;;;20.20;50.10;;;;;;5084072;28;19996;-63
2023/04/25 10:58:48;;;;;;;;;;;20.10;48.40;;;;;;5076813;28;19989;-65
2023/04/25 11:01:14;;;;;;;;;;;19.90;51.20;;;;;;5082582;28;20358;-64
2023/04/25 11:03:42;;;;;;;;;;;19.70;50.00;;;;;;5086217;28;21493;-64
2023/04/25 11:06:12;;;;;;;;;;;19.80;48.80;;;;;;5098620;28;20076;-65
2023/04/25 11:08:48;;;;;;;;;;;19.60;50.00;;;;;;5085910;28;20100;-63
2023/04/25 11:11:14;;;;;;;;;;;19.60;48.90;;;;;;5082843;28;20039;-64
2023/04/25 11:13:40;;;;;;;;;;;19.50;50.20;;;;;;5083809;28;19989;-65
2023/04/25 11:16:09;;;;;;;;;;;19.50;49.40;;;;;;5077217;28;20351;-60
2023/04/25 11:18:35;;;;;;;;;;;19.50;48.80;;;;;;5078826;28;20027;-61
2023/04/25 11:21:00;;;;;;;;;;;19.70;50.00;;;;;;5078500;28;20094;-62
2023/04/25 11:23:29;;;;;;;;;;;19.90;52.20;;;;;;5084092;28;19989;-61
2023/04/25 11:25:55;;;;;;;;;;;20.50;50.00;;;;;;5087692;28;19992;-63
2023/04/25 11:28:22;;;;;;;;;;;21.10;48.30;;;;;;5088319;28;20013;-64
2023/04/25 11:30:50;;;;;;;;;;;21.80;46.40;;;;;;5074138;28;20055;-64
2023/04/25 11:33:15;;;;;;;;;;;22.00;42.70;;;;;;5086442;28;20405;-63
2023/04/25 11:35:41;;;;;;;;;;;22.20;44.70;;;;;;5073624;28;20047;-62
2023/04/25 11:38:07;;;;;;;;;;;22.00;44.30;;;;;;5085388;28;20020;-68
2023/04/25 11:40:32;;;;;;;;;;;21.90;42.20;;;;;;5088816;28;20022;-62
2023/04/25 11:42:59;;;;;;;;;;;21.50;43.40;;;;;;5071120;28;19986;-62
2023/04/25 11:45:26;;;;;;;;;;;21.40;44.40;;;;;;5074284;28;19997;-62
2023/04/25 11:47:51;;;;;;;;;;;21.40;42.20;;;;;;5091276;28;20324;-63
2023/04/25 11:50:17;;;;;;;;;;;21.10;44.30;;;;;;5093860;28;20104;-63
2023/04/25 11:52:43;;;;;;;;;;;21.00;43.40;;;;;;5099534;28;19991;-63
2023/04/25 11:55:10;;;;;;;;;;;21.00;45.50;;;;;;5097391;28;20653;-62
2023/04/25 11:57:37;;;;;;;;;;;21.10;43.40;;;;;;5105236;28;20429;-63
2023/04/25 12:00:13;;;;;;;;;;;21.00;45.80;;;;;;5100954;28;20028;-62
2023/04/25 12:02:46;;;;;;;;;;;20.90;47.20;;;;;;5098916;28;19989;-63
2023/04/25 12:05:13;;;;;;;;;;;20.80;45.00;;;;;;5094176;28;19997;-62
2023/04/25 12:07:38;;;;;;;;;;;20.50;45.10;;;;;;5100499;28;20068;-63
2023/04/25 12:10:08;;;;;;;;;;;20.40;44.90;;;;;;5097511;28;20119;-64
2023/04/25 12:12:40;;;;;;;;;;;20.20;47.10;;;;;;5106798;28;20488;-64
2023/04/25 12:15:33;;;;;;;;;;;20.00;49.90;;;;;;5092651;28;19996;-64
2023/04/25 12:18:27;;;;;;;;;;;20.00;49.80;;;;;;5092916;28;19989;-64
2023/04/25 12:24:22;;;;;;;;;;;19.90;49.30;;;;;;5093061;28;20011;-64
2023/04/25 12:27:16;;;;;;;;;;;20.00;52.10;;;;;;5091057;28;19989;-65
2023/04/25 12:29:51;;;;;;;;;;;20.10;52.70;;;;;;5092826;28;20009;-65
2023/04/25 12:32:17;;;;;;;;;;;20.20;51.40;;;;;;5098811;28;19989;-62
2023/04/25 12:34:43;;;;;;;;;;;20.70;50.30;;;;;;5102537;28;20436;-62
2023/04/25 12:37:09;;;;;;;;;;;21.00;47.50;;;;;;5101460;28;20071;-63
2023/04/25 12:39:34;;;;;;;;;;;21.20;48.10;;;;;;5097250;28;20017;-64
2023/04/25 12:42:00;;;;;;;;;;;21.60;49.80;;;;;;5100606;28;20034;-64
2023/04/25 12:44:26;;;;;;;;;;;22.20;46.90;;;;;;5113266;28;20050;-64
2023/04/25 12:46:52;;;;;;;;;;;22.30;44.40;;;;;;5113167;28;19984;-64
2023/04/25 12:49:17;;;;;;;;;;;22.50;44.70;;;;;;5110814;28;20523;-62
2023/04/25 12:51:43;;;;;;;;;;;22.70;44.40;;;;;;5110630;28;20393;-62
2023/04/25 12:54:09;;;;;;;;;;;22.70;46.20;;;;;;5112996;28;20024;-61
2023/04/25 12:56:35;;;;;;;;;;;22.50;43.70;;;;;;5112415;28;19984;-61
2023/04/25 12:59:00;;;;;;;;;;;22.20;43.40;;;;;;5112708;28;20035;-61
2023/04/25 13:01:26;;;;;;;;;;;21.60;43.90;;;;;;5112562;28;20027;-61
2023/04/25 13:03:52;;;;;;;;;;;21.30;45.60;;;;;;5113009;28;20507;-62
2023/04/25 13:06:18;;;;;;;;;;;21.60;45.60;;;;;;5112794;28;20055;-62
2023/04/25 13:08:43;;;;;;;;;;;21.90;45.70;;;;;;5113190;28;19995;-63
2023/04/25 13:11:09;;;;;;;;;;;22.00;42.00;;;;;;5113383;28;20035;-64
2023/04/25 13:13:35;;;;;;;;;;;22.10;43.00;;;;;;5113957;28;20027;-64
2023/04/25 13:16:01;;;;;;;;;;;22.20;44.10;;;;;;5114012;28;20395;-61
2023/04/25 13:18:28;;;;;;;;;;;22.20;42.90;;;;;;5114517;28;19988;-61
2023/04/25 13:20:53;;;;;;;;;;;22.40;46.70;;;;;;5114492;28;20537;-61
2023/04/25 13:23:20;;;;;;;;;;;22.60;47.70;;;;;;5114135;28;19984;-63
2023/04/25 13:25:45;;;;;;;;;;;22.50;44.90;;;;;;5114355;28;20483;-64
2023/04/25 13:28:11;;;;;;;;;;;22.40;43.40;;;;;;5114025;28;19988;-64
2023/04/25 13:30:36;;;;;;;;;;;22.60;45.00;;;;;;5113900;28;20008;-64
2023/04/25 13:33:03;;;;;;;;;;;22.70;44.00;;;;;;5114113;28;19985;-61
2023/04/25 13:35:29;;;;;;;;;;;22.70;42.10;;;;;;5114573;28;19992;-61
2023/04/25 13:37:55;;;;;;;;;;;22.50;41.10;;;;;;5113847;28;20056;-61
2023/04/25 13:40:21;;;;;;;;;;;22.20;41.60;;;;;;5114014;28;19992;-63
2023/04/25 13:42:46;;;;;;;;;;;22.20;43.00;;;;;;5114088;28;20018;-64
2023/04/25 13:45:12;;;;;;;;;;;22.30;42.10;;;;;;5113785;28;20485;-63
2023/04/25 13:47:37;;;;;;;;;;;22.50;41.00;;;;;;5113848;28;20054;-64
2023/04/25 13:50:04;;;;;;;;;;;22.20;43.20;;;;;;5114013;28;20009;-64
2023/04/25 13:52:30;;;;;;;;;;;22.20;42.20;;;;;;5113973;28;19991;-64
2023/04/25 13:54:56;;;;;;;;;;;22.20;42.20;;;;;;5115607;28;19988;-64
2023/04/25 13:57:21;;;;;;;;;;;22.70;42.80;;;;;;5118127;28;20033;-64
2023/04/25 13:59:47;;;;;;;;;;;23.00;42.00;;;;;;5117988;28;19996;-61
2023/04/25 14:02:13;;;;;;;;;;;23.40;43.40;;;;;;5117766;28;20041;-62
2023/04/25 14:04:38;;;;;;;;;;;23.50;39.30;;;;;;5117783;28;19988;-62
2023/04/25 14:07:04;;;;;;;;;;;23.20;40.20;;;;;;5117908;28;19992;-62
2023/04/25 14:09:30;;;;;;;;;;;23.60;40.60;;;;;;5117536;28;19988;-62
2023/04/25 14:11:56;;;;;;;;;;;24.00;39.30;;;;;;5118001;28;20034;-62
2023/04/25 14:14:22;;;;;;;;;;;24.20;40.70;;;;;;5117810;28;20055;-62
2023/04/25 14:16:48;;;;;;;;;;;24.60;37.70;;;;;;5117619;28;19988;-62
2023/04/25 14:19:14;;;;;;;;;;;24.70;37.20;;;;;;5117524;28;20042;-62